^^
Weerstation Genderen Historische Gegevens
 
Daily Summary for February 28, 2024 Units:  Metric    English   Both
Daily Weekly Monthly Yearly
  Current: High: Low: Average:
Temperature: 8.2 °C 8.3 °C 1.7 °C 4.4 °C
Dew Point: -3.6 °C -0.7 °C -21.1 °C -12.2 °C
Humidity: 43% 54% 14% 31%
Wind Speed: 4.8km/h 14.4km/h 0km/h 6km/h
Wind Gust: 9.7km/h 19.3km/h - -
WindSW - - WSW
Pressure: 1018.8 hPa 1021.2 hPa 1018.8 hPa -
Precipitation: 0.0 mm      
 
 
Tabular Data for February 28, 2024
Time Temperature Dew Point Pressure Wind Wind Speed Wind Gust Humidity Rainfall Rate (Hourly) solar
00:04 2.6 °C -11 °C 1019.4 hPa NW 0.6 km/h 1.6 km/h 36% 0.0 mm W/m2
00:09 2.6 °C -11.1 °C 1019.4 hPa Calm   1.6 km/h 35.7% 0.0 mm W/m2
00:14 2.6 °C -11.3 °C 1019.4 hPa Calm     35% 0.0 mm W/m2
00:19 2.7 °C -11.6 °C 1019.4 hPa NW 0.8 km/h 0.5 km/h 34.1% 0.0 mm W/m2
00:24 2.7 °C -11.9 °C 1019.4 hPa Calm   1.6 km/h 33.2% 0.0 mm W/m2
00:29 2.8 °C -12.1 °C 1019.4 hPa Calm     32.6% 0.0 mm W/m2
00:34 2.8 °C -12.3 °C 1019.4 hPa NW 1.3 km/h 1.3 km/h 32% 0.0 mm W/m2
00:39 2.9 °C -12.6 °C 1019.4 hPa NW 1.6 km/h 1.6 km/h 31% 0.0 mm W/m2
00:44 3 °C -12.9 °C 1019.4 hPa NW 1.9 km/h 1.6 km/h 30% 0.0 mm W/m2
00:49 3.1 °C -12.9 °C 1019.4 hPa NW 1.2 km/h 3.2 km/h 30% 0.0 mm W/m2
00:54 3.1 °C -12.9 °C 1019.4 hPa Calm   1.6 km/h 30% 0.0 mm W/m2
00:59 3.1 °C -12.9 °C 1019.5 hPa Calm   1.6 km/h 30% 0.0 mm W/m2
01:04 3 °C -12.9 °C 1019.5 hPa Calm     30% 0.0 mm W/m2
01:09 3 °C -12.7 °C 1019.5 hPa NW 1.5 km/h 1.1 km/h 30.5% 0.0 mm W/m2
01:14 3 °C -12.9 °C 1019.5 hPa NW 1.1 km/h 1.6 km/h 30.2% 0.0 mm W/m2
01:19 2.9 °C -12.6 °C 1019.5 hPa NW 1.9 km/h 1.6 km/h 31% 0.0 mm W/m2
01:24 2.8 °C -12.7 °C 1019.4 hPa NW 0.6 km/h 1.6 km/h 31% 0.0 mm W/m2
01:29 2.7 °C -12.4 °C 1019.4 hPa NW 1 km/h 1.6 km/h 31.8% 0.0 mm W/m2
01:34 2.7 °C -12.4 °C 1019.4 hPa Calm   1.6 km/h 32% 0.0 mm W/m2
01:39 2.5 °C -12.2 °C 1019.5 hPa Calm     32.8% 0.0 mm W/m2
01:44 2.4 °C -12.3 °C 1019.5 hPa Calm     33% 0.0 mm W/m2
01:49 2.3 °C -12.4 °C 1019.5 hPa Calm   0.2 km/h 33% 0.0 mm W/m2
01:54 2.3 °C -12.8 °C 1019.4 hPa NW 0.9 km/h 1.6 km/h 32% 0.0 mm W/m2
01:59 2.2 °C -12.8 °C 1019.3 hPa Calm   1.6 km/h 32% 0.0 mm W/m2
02:04 2.1 °C -12.8 °C 1019.3 hPa NW 1 km/h 0.3 km/h 32.2% 0.0 mm W/m2
02:09 2 °C -12.8 °C 1019.2 hPa NW 0.4 km/h 1.6 km/h 32.5% 0.0 mm W/m2
02:14 2 °C -13.3 °C 1019.3 hPa NW 0.7 km/h 1.6 km/h 31.3% 0.0 mm W/m2
02:19 2 °C -13.4 °C 1019.3 hPa NW 0.3 km/h 1.6 km/h 31% 0.0 mm W/m2
02:24 1.9 °C -13.5 °C 1019.3 hPa Calm     31% 0.0 mm W/m2
02:29 1.8 °C -13.5 °C 1019.4 hPa NW 1.1 km/h 1.1 km/h 31% 0.0 mm W/m2
02:34 1.8 °C -13.9 °C 1019.3 hPa NW 1.9 km/h 1.6 km/h 30% 0.0 mm W/m2
02:39 1.8 °C -14 °C 1019.4 hPa NW 2.8 km/h 1.9 km/h 29.7% 0.0 mm W/m2
02:44 1.8 °C -14.5 °C 1019.4 hPa WNW 3.7 km/h 3.2 km/h 28.6% 0.0 mm W/m2
02:49 1.8 °C -14.8 °C 1019.4 hPa WNW 4.6 km/h 3.2 km/h 28% 0.0 mm W/m2
02:54 1.8 °C -14.8 °C 1019.4 hPa WNW 2.5 km/h 4.8 km/h 28% 0.0 mm W/m2
02:59 1.8 °C -14.7 °C 1019.3 hPa WNW 2.2 km/h 3.2 km/h 28.3% 0.0 mm W/m2
03:04 1.7 °C -14.7 °C 1019.3 hPa West 3.2 km/h 3.2 km/h 28.5% 0.0 mm W/m2
03:09 1.7 °C -14.9 °C 1019.3 hPa West 2.7 km/h 3.2 km/h 28% 0.0 mm W/m2
03:14 1.7 °C -15.2 °C 1019.3 hPa West 4.9 km/h 3.4 km/h 27.4% 0.0 mm W/m2
03:19 1.7 °C -15.4 °C 1019.3 hPa West 3 km/h 6.4 km/h 27% 0.0 mm W/m2
03:24 1.7 °C -15.4 °C 1019.3 hPa West 3.7 km/h 3.2 km/h 27% 0.0 mm W/m2
03:29 1.7 °C -15.5 °C 1019.2 hPa West 3.5 km/h 3.4 km/h 26.7% 0.0 mm W/m2
03:34 1.7 °C -15.8 °C 1019.3 hPa WSW 5.1 km/h 4.8 km/h 26% 0.0 mm W/m2
03:39 1.7 °C -15.8 °C 1019.4 hPa WSW 4.7 km/h 4.8 km/h 26% 0.0 mm W/m2
03:44 1.7 °C -16.1 °C 1019.4 hPa West 4.1 km/h 6.4 km/h 25.4% 0.0 mm W/m2
03:49 1.7 °C -16.3 °C 1019.4 hPa West 4.7 km/h 4.8 km/h 25% 0.0 mm W/m2
03:54 1.8 °C -16.2 °C 1019.3 hPa West 5.6 km/h 4.8 km/h 25% 0.0 mm W/m2
03:59 1.8 °C -16.2 °C 1019.3 hPa West 3.7 km/h 4.8 km/h 25% 0.0 mm W/m2
04:04 1.8 °C -16.2 °C 1019.3 hPa WSW 4.7 km/h 3.5 km/h 25% 0.0 mm W/m2
04:09 1.7 °C -16.3 °C 1019.3 hPa WSW 5.3 km/h 6.4 km/h 25% 0.0 mm W/m2
04:14 1.8 °C -16.2 °C 1019.3 hPa West 5.6 km/h 6.4 km/h 25% 0.0 mm W/m2
04:19 1.8 °C -16.2 °C 1019.2 hPa WSW 5 km/h 6.4 km/h 25% 0.0 mm W/m2
04:24 1.8 °C -16.2 °C 1019.2 hPa West 4.2 km/h 6.4 km/h 25% 0.0 mm W/m2
04:29 1.8 °C -16.4 °C 1019.1 hPa West 5.1 km/h 6.4 km/h 24.5% 0.0 mm W/m2
04:34 1.9 °C -16.6 °C 1019.1 hPa West 3.3 km/h 6.4 km/h 24% 0.0 mm W/m2
04:39 2 °C -16.9 °C 1019.1 hPa West 2.6 km/h 3.2 km/h 23.2% 0.0 mm W/m2
04:44 2 °C -17 °C 1019.1 hPa West 1.5 km/h 3.2 km/h 23% 0.0 mm W/m2
04:49 2.1 °C -17.2 °C 1019.1 hPa West 2.9 km/h 1.8 km/h 22.4% 0.0 mm W/m2
04:54 2.2 °C -17.7 °C 1019.2 hPa West 3.4 km/h 3.2 km/h 21.4% 0.0 mm W/m2
04:59 2.4 °C -17.8 °C 1019.1 hPa SW 4.3 km/h 3.2 km/h 21% 0.0 mm W/m2
05:04 2.5 °C -17.7 °C 1019.2 hPa SW 4.2 km/h 4.8 km/h 21% 0.0 mm W/m2
05:09 2.5 °C -17.6 °C 1019.2 hPa SW 3.7 km/h 4.8 km/h 21% 0.0 mm W/m2
05:14 2.6 °C -17.6 °C 1019.3 hPa SW 3.7 km/h 3.2 km/h 21% 0.0 mm W/m2
05:19 2.7 °C -17.5 °C 1019.3 hPa WSW 5 km/h 4.8 km/h 21.1% 0.0 mm W/m2
05:24 2.7 °C -17 °C 1019.3 hPa WSW 3.6 km/h 6.4 km/h 22% 0.0 mm W/m2
05:29 2.6 °C -16.7 °C 1019.2 hPa SW 3.3 km/h 4.8 km/h 22.6% 0.0 mm W/m2
05:34 2.6 °C -16.4 °C 1019.3 hPa SW 3.3 km/h 3.2 km/h 23.2% 0.0 mm W/m2
05:39 2.5 °C -16.1 °C 1019.3 hPa SW 3.4 km/h 3.2 km/h 24% 0.0 mm W/m2
05:44 2.5 °C -15.9 °C 1019.4 hPa WSW 2.8 km/h 3.2 km/h 24.3% 0.0 mm W/m2
05:49 2.4 °C -15.6 °C 1019.5 hPa WSW 3.7 km/h 3.2 km/h 25.1% 0.0 mm W/m2
05:54 2.3 °C -15.3 °C 1019.5 hPa WSW 3.7 km/h 3.2 km/h 26% 0.0 mm W/m2
05:59 2.3 °C -15.3 °C 1019.7 hPa WSW 3.6 km/h 3.2 km/h 26% 0.0 mm W/m2
06:04 2.2 °C -15.3 °C 1019.7 hPa WSW 2.5 km/h 3.2 km/h 26% 0.0 mm W/m2
06:09 2.2 °C -15.8 °C 1019.7 hPa WSW 2.8 km/h 3.2 km/h 25.1% 0.0 mm W/m2
06:14 2.3 °C -16 °C 1019.7 hPa WSW 1.9 km/h 3.2 km/h 24.5% 0.0 mm W/m2
06:19 2.3 °C -16.2 °C 1019.7 hPa WSW 2.4 km/h 3.2 km/h 24% 0.0 mm W/m2
06:24 2.4 °C -16.2 °C 1019.7 hPa WSW 2.3 km/h 3.2 km/h 23.9% 0.0 mm W/m2
06:29 2.4 °C -16.6 °C 1019.7 hPa WSW 2.5 km/h 3.2 km/h 23% 0.0 mm W/m2
06:34 2.5 °C -16.6 °C 1019.8 hPa WSW 3.3 km/h 3.2 km/h 23% 0.0 mm W/m2
06:39 2.5 °C -16.6 °C 1019.8 hPa WSW 2.4 km/h 4.8 km/h 23% 0.0 mm W/m2
06:44 2.5 °C -16.6 °C 1019.7 hPa WSW 3.3 km/h 3.2 km/h 23% 0.0 mm W/m2
06:49 2.5 °C -16.6 °C 1019.7 hPa SW 4.3 km/h 3.2 km/h 23% 0.0 mm W/m2
06:54 2.4 °C -16.6 °C 1019.7 hPa WSW 3.3 km/h 4.8 km/h 23% 0.0 mm W/m2
06:59 2.4 °C -16.6 °C 1019.6 hPa SW 4.1 km/h 4.8 km/h 23% 0.0 mm W/m2
07:04 2.4 °C -16.6 °C 1019.7 hPa SW 3.8 km/h 4.8 km/h 23% 0.0 mm W/m2
07:09 2.4 °C -16.6 °C 1019.7 hPa SW 5.3 km/h 6.4 km/h 23% 0.0 mm W/m2
07:14 2.5 °C -17.1 °C 1019.8 hPa SW 5.7 km/h 6.4 km/h 22% 0.0 mm W/m2
07:19 2.5 °C -17.1 °C 1019.8 hPa SW 7.2 km/h 8 km/h 22% 0.0 mm W/m2
07:24 2.4 °C -16.7 °C 1019.8 hPa SW 7 km/h 8 km/h 22.9% 0.0 mm W/m2
07:29 2.4 °C -16.7 °C 1019.7 hPa SW 6.6 km/h 8 km/h 23% 0.0 mm W/m2
07:34 2.3 °C -16.7 °C 1019.8 hPa SW 4.6 km/h 8 km/h 23% 0.0 mm W/m2
07:39 2.3 °C -16.8 °C 1019.9 hPa SSW 6.6 km/h 8 km/h 23% 0.0 mm W/m2
07:44 2.3 °C -16.8 °C 1020.0 hPa SW 5.1 km/h 8 km/h 23% 0.0 mm W/m2
07:49 2.3 °C -16.8 °C 1020.0 hPa SW 5.3 km/h 6.4 km/h 23% 0.0 mm W/m2
07:54 2.3 °C -16.8 °C 1020.1 hPa SW 5.8 km/h 8 km/h 23% 0.0 mm W/m2
07:59 2.3 °C -17.3 °C 1020.3 hPa SW 5.7 km/h 8 km/h 22% 0.0 mm W/m2
08:04 2.3 °C -17.6 °C 1020.3 hPa SW 4.2 km/h 8 km/h 21.5% 0.0 mm W/m2
08:09 2.4 °C -18 °C 1020.4 hPa WSW 5.1 km/h 4.8 km/h 20.5% 0.0 mm W/m2
08:14 2.5 °C -18.5 °C 1020.5 hPa WSW 5.7 km/h 6.4 km/h 19.6% 0.0 mm W/m2
08:19 2.6 °C -18.7 °C 1020.5 hPa SW 6.6 km/h 9.7 km/h 19% 0.0 mm W/m2
08:24 2.7 °C -19.2 °C 1020.5 hPa SW 7.1 km/h 8 km/h 18.1% 0.0 mm W/m2
08:29 2.8 °C -19.3 °C 1020.5 hPa SW 6.7 km/h 8 km/h 18% 0.0 mm W/m2
08:34 2.9 °C -19.2 °C 1020.5 hPa WSW 4.3 km/h 9.7 km/h 18% 0.0 mm W/m2
08:39 3 °C -19.1 °C 1020.6 hPa SW 5.3 km/h 6.4 km/h 18% 0.0 mm W/m2
08:44 3 °C -19.7 °C 1020.6 hPa WSW 4.8 km/h 6.4 km/h 17% 0.0 mm W/m2
08:49 3.1 °C -19.6 °C 1020.7 hPa WSW 5 km/h 6.4 km/h 17% 0.0 mm W/m2
08:54 3.2 °C -19.6 °C 1020.7 hPa SW 5.3 km/h 6.4 km/h 17% 0.0 mm W/m2
08:59 3.2 °C -19.5 °C 1020.8 hPa SW 5.3 km/h 6.4 km/h 17% 0.0 mm W/m2
09:04 3.3 °C -19.5 °C 1020.8 hPa SW 5.3 km/h 6.4 km/h 17% 0.0 mm W/m2
09:09 3.4 °C -19.4 °C 1020.8 hPa SW 6.6 km/h 6.4 km/h 17% 0.0 mm W/m2
09:14 3.4 °C -19.4 °C 1020.9 hPa SW 7.4 km/h 8 km/h 17% 0.0 mm W/m2
09:19 3.4 °C -19.5 °C 1021.0 hPa SW 7.6 km/h 8 km/h 16.9% 0.0 mm W/m2
09:24 3.5 °C -20 °C 1021.0 hPa SW 8.7 km/h 11.3 km/h 16% 0.0 mm W/m2
09:29 3.6 °C -20 °C 1021.0 hPa SW 8.5 km/h 9.7 km/h 16% 0.0 mm W/m2
09:34 3.6 °C -19.9 °C 1021.0 hPa SW 8.3 km/h 9.7 km/h 16% 0.0 mm W/m2
09:39 3.7 °C -19.9 °C 1021.1 hPa SW 7.2 km/h 9.7 km/h 16% 0.0 mm W/m2
09:44 3.7 °C -20.3 °C 1021.0 hPa SW 8.2 km/h 9.7 km/h 15.3% 0.0 mm W/m2
09:49 3.8 °C -20.5 °C 1021.1 hPa SW 7.5 km/h 9.7 km/h 15% 0.0 mm W/m2
09:54 3.8 °C -20.5 °C 1021.2 hPa SW 6.5 km/h 9.7 km/h 15% 0.0 mm W/m2
09:59 4 °C -20.6 °C 1021.2 hPa SW 5.7 km/h 8 km/h 14.8% 0.0 mm W/m2
10:04 4.1 °C -21.1 °C 1021.2 hPa SW 6.5 km/h 6.4 km/h 14% 0.0 mm W/m2
10:09 4.2 °C -21 °C 1021.2 hPa SW 8.1 km/h 8 km/h 14% 0.0 mm W/m2
10:14 4.3 °C -20.6 °C 1021.0 hPa SW 9.6 km/h 9.7 km/h 14.5% 0.0 mm W/m2
10:19 4.3 °C -20.2 °C 1021.0 hPa SW 10.1 km/h 11.3 km/h 15% 0.0 mm W/m2
10:39 4.7 °C -19.9 °C 1021.1 hPa SW 8.9 km/h 7.7 km/h 14.9% 0.0 mm W/m2
10:44 4.8 °C -20.1 °C 1021.0 hPa SW 7.7 km/h 9.7 km/h 14.5% 0.0 mm W/m2
10:49 5 °C -20.1 °C 1021.0 hPa SW 12 km/h 9.7 km/h 14.4% 0.0 mm W/m2
10:54 5.1 °C -19.5 °C 1021.1 hPa SW 8.4 km/h 12.9 km/h 15% 0.0 mm W/m2
10:59 5.2 °C -19 °C 1021.1 hPa SW 10.3 km/h 10.1 km/h 15.6% 0.0 mm W/m2
11:04 5.3 °C -17.9 °C 1021.1 hPa SW 9.3 km/h 12.9 km/h 17% 0.0 mm W/m2
11:09 5.4 °C -17.7 °C 1021.1 hPa WSW 9.3 km/h 11.3 km/h 17.2% 0.0 mm W/m2
11:14 5.4 °C -16.5 °C 1021.1 hPa SW 9.7 km/h 12.9 km/h 18.8% 0.0 mm W/m2
11:19 5.5 °C -15.9 °C 1021.0 hPa SW 7.9 km/h 12.9 km/h 19.7% 0.0 mm W/m2
11:24 5.7 °C -15.6 °C 1021.1 hPa SW 9.5 km/h 11.3 km/h 20% 0.0 mm W/m2
11:29 5.8 °C -15.1 °C 1021.1 hPa WSW 7.7 km/h 12.9 km/h 20.7% 0.0 mm W/m2
11:34 5.9 °C -13.9 °C 1021.0 hPa SW 7.8 km/h 11.3 km/h 22.6% 0.0 mm W/m2
11:39 6 °C -13.5 °C 1021.0 hPa SW 8 km/h 11.3 km/h 23.2% 0.0 mm W/m2
11:44 6.1 °C -12.8 °C 1020.9 hPa SW 9.2 km/h 9.7 km/h 24.6% 0.0 mm W/m2
11:49 6.1 °C -11.8 °C 1020.8 hPa SW 8.7 km/h 11.3 km/h 26.4% 0.0 mm W/m2
11:54 6.3 °C -11.7 °C 1020.9 hPa SW 7.4 km/h 9.7 km/h 26.2% 0.0 mm W/m2
11:59 6.4 °C -11.3 °C 1020.9 hPa SW 7.6 km/h 9.7 km/h 27% 0.0 mm W/m2
12:04 6.5 °C -10.2 °C 1020.9 hPa SW 8.1 km/h 9.7 km/h 29.2% 0.0 mm W/m2
12:09 6.5 °C -9.4 °C 1020.8 hPa SW 8.6 km/h 11.3 km/h 31% 0.0 mm W/m2
12:14 6.7 °C -9.2 °C 1020.8 hPa SW 10.1 km/h 11.3 km/h 31.2% 0.0 mm W/m2
12:19 6.8 °C -8.3 °C 1020.8 hPa SW 9.6 km/h 12.9 km/h 33.2% 0.0 mm W/m2
12:24 6.8 °C -7.3 °C 1020.8 hPa SW 7.9 km/h 9.7 km/h 35.7% 0.0 mm W/m2
12:29 7 °C -7.1 °C 1020.7 hPa SW 7.4 km/h 11.3 km/h 36% 0.0 mm W/m2
12:34 7.2 °C -6.8 °C 1020.7 hPa SW 7.7 km/h 11.3 km/h 36.3% 0.0 mm W/m2
12:39 7.3 °C -5.9 °C 1020.7 hPa SW 7.9 km/h 9.7 km/h 38.4% 0.0 mm W/m2
12:44 7.5 °C -5.1 °C 1020.7 hPa SW 9 km/h 9.7 km/h 40.5% 0.0 mm W/m2
12:49 7.6 °C -4 °C 1020.7 hPa SW 8.7 km/h 11.3 km/h 43.4% 0.0 mm W/m2
12:54 7.8 °C -3.5 °C 1020.6 hPa SW 8.6 km/h 11.3 km/h 44.8% 0.0 mm W/m2
12:59 7.9 °C -2.5 °C 1020.6 hPa SW 9.6 km/h 9.8 km/h 47.9% 0.0 mm W/m2
13:04 7.9 °C -1.9 °C 1020.6 hPa SW 8.5 km/h 12.9 km/h 50% 0.0 mm W/m2
13:09 8 °C -1.6 °C 1020.5 hPa SW 7.6 km/h 11.3 km/h 50.5% 0.0 mm W/m2
13:14 8.1 °C -1.2 °C 1020.4 hPa SW 6.9 km/h 9.7 km/h 52% 0.0 mm W/m2
13:19 8.2 °C -1.1 °C 1020.5 hPa WSW 9.9 km/h 9.8 km/h 52% 0.0 mm W/m2
13:24 8.1 °C -0.7 °C 1020.5 hPa West 14.4 km/h 16.1 km/h 53.5% 0.0 mm W/m2
13:29 8 °C -0.8 °C 1020.5 hPa SW 9.5 km/h 17.7 km/h 54% 0.0 mm W/m2
13:34 7.9 °C -0.9 °C 1020.5 hPa SW 10 km/h 9.7 km/h 53.8% 0.0 mm W/m2
13:39 7.9 °C -1.2 °C 1020.4 hPa SW 9.3 km/h 11.3 km/h 52.8% 0.0 mm W/m2
13:44 7.9 °C -1.4 °C 1020.4 hPa SW 11.1 km/h 12.9 km/h 52% 0.0 mm W/m2
13:49 7.9 °C -1.4 °C 1020.4 hPa WSW 8.3 km/h 12.9 km/h 52% 0.0 mm W/m2
13:54 8 °C -1.7 °C 1020.4 hPa WSW 7.7 km/h 9.7 km/h 50.6% 0.0 mm W/m2
13:59 8.1 °C -1.6 °C 1020.3 hPa SW 9.5 km/h 9.7 km/h 50.7% 0.0 mm W/m2
14:04 8.1 °C -1.5 °C 1020.3 hPa WSW 10.3 km/h 11.3 km/h 50.8% 0.0 mm W/m2
14:09 8.1 °C -1.5 °C 1020.4 hPa WSW 11.7 km/h 12.9 km/h 50.7% 0.0 mm W/m2
14:14 8 °C -1.5 °C 1020.3 hPa WSW 11.2 km/h 14.5 km/h 51% 0.0 mm W/m2
14:19 7.9 °C -1.7 °C 1020.3 hPa SW 13 km/h 14.5 km/h 50.8% 0.0 mm W/m2
14:24 7.9 °C -2 °C 1020.2 hPa WSW 11.7 km/h 16.1 km/h 49.7% 0.0 mm W/m2
14:29 7.8 °C -2.2 °C 1020.2 hPa WSW 12.1 km/h 12.9 km/h 49.2% 0.0 mm W/m2
14:34 7.8 °C -2.3 °C 1020.2 hPa SW 10 km/h 14.5 km/h 48.8% 0.0 mm W/m2
14:39 7.8 °C -2.6 °C 1020.1 hPa WSW 10.6 km/h 14.5 km/h 48% 0.0 mm W/m2
14:44 7.8 °C -2.8 °C 1020.1 hPa WSW 8.4 km/h 11.3 km/h 47.2% 0.0 mm W/m2
14:49 7.9 °C -3.2 °C 1020.0 hPa WSW 7.9 km/h 11.3 km/h 45.5% 0.0 mm W/m2
14:54 8 °C -3.1 °C 1019.8 hPa WSW 8.1 km/h 9.7 km/h 45.3% 0.0 mm W/m2
14:59 8.1 °C -2.6 °C 1019.7 hPa SW 10.1 km/h 9.7 km/h 47.1% 0.0 mm W/m2
15:04 8.1 °C -2.3 °C 1019.7 hPa SW 8.8 km/h 11.3 km/h 48% 0.0 mm W/m2
15:09 8.2 °C -2.2 °C 1019.6 hPa SW 7.8 km/h 11.3 km/h 48% 0.0 mm W/m2
15:14 8.3 °C -2 °C 1019.6 hPa SW 9.5 km/h 9.7 km/h 48.6% 0.0 mm W/m2
15:19 8.3 °C -1.6 °C 1019.5 hPa SW 9.4 km/h 11.3 km/h 49.7% 0.0 mm W/m2
15:24 8.3 °C -1.5 °C 1019.4 hPa SW 13.3 km/h 16.1 km/h 50.3% 0.0 mm W/m2
15:29 8.3 °C -1.3 °C 1019.4 hPa SW 11.8 km/h 16.1 km/h 51% 0.0 mm W/m2
15:34 8.3 °C -1.3 °C 1019.4 hPa SW 11.8 km/h 14.5 km/h 51% 0.0 mm W/m2
15:39 8.3 °C -1.3 °C 1019.4 hPa SW 11.3 km/h 14.5 km/h 51% 0.0 mm W/m2
15:44 8.2 °C -1.3 °C 1019.3 hPa SW 9.4 km/h 12.9 km/h 51% 0.0 mm W/m2
15:49 8.2 °C -1.4 °C 1019.3 hPa SW 9 km/h 11.3 km/h 50.6% 0.0 mm W/m2
15:54 8.2 °C -1.6 °C 1019.3 hPa SW 12 km/h 11.3 km/h 50% 0.0 mm W/m2
15:59 8.3 °C -1.6 °C 1019.3 hPa SW 9 km/h 12.9 km/h 50% 0.0 mm W/m2
16:04 8.3 °C -1.6 °C 1019.2 hPa SW 10.7 km/h 11.3 km/h 50% 0.0 mm W/m2
16:09 8.3 °C -1.7 °C 1019.2 hPa SW 12.5 km/h 11.3 km/h 49.6% 0.0 mm W/m2
16:14 8.3 °C -1.8 °C 1019.1 hPa SW 11.8 km/h 19.3 km/h 49% 0.0 mm W/m2
16:19 8.3 °C -2 °C 1019.1 hPa SW 11.5 km/h 12.9 km/h 48.4% 0.0 mm W/m2
16:24 8.3 °C -2.3 °C 1019.1 hPa SW 13.7 km/h 12.9 km/h 47.5% 0.0 mm W/m2
16:29 8.2 °C -2.5 °C 1019.1 hPa SW 8.9 km/h 16.1 km/h 46.7% 0.0 mm W/m2
16:34 8.2 °C -2.8 °C 1019.1 hPa SW 9.1 km/h 9.7 km/h 45.9% 0.0 mm W/m2
16:39 8.2 °C -3 °C 1019.0 hPa SW 11.2 km/h 12.9 km/h 45% 0.0 mm W/m2
16:44 8.2 °C -3.3 °C 1018.9 hPa SW 10.7 km/h 12.9 km/h 44.4% 0.0 mm W/m2
16:49 8.2 °C -3.5 °C 1018.9 hPa SW 7.4 km/h 12.9 km/h 43.7% 0.0 mm W/m2
16:54 8.2 °C -3.7 °C 1018.9 hPa SW 7.6 km/h 11.3 km/h 42.8% 0.0 mm W/m2
16:55 8.2 °C -3.6 °C 1018.8 hPa SW 4.8 km/h 9.7 km/h 43% 0.0 mm W/m2
Genderen, Netherlands, EU
Compliments of Weather Underground - 2 mb